Time;durP1;ratioP1;P1;durP2;ratioP2;P2;SDS_P1;SDS_P2;PMS_P1;PMS_P2;Temp;Humidity;BMP_temperature;BMP_pressure;BME280_temperature;BME280_humidity;BME280_pressure;Samples;Min_cycle;Max_cycle;Signal;HPM_P1;HPM_P2
2023/01/09 00:01:22;;;;;;;5.45;2.17;;;6.70;99.90;;;;;;5016296;28;20436;-86
2023/01/09 00:03:48;;;;;;;4.53;2.60;;;6.60;99.90;;;;;;5033617;28;20042;-82
2023/01/09 00:06:14;;;;;;;6.80;2.50;;;6.70;99.90;;;;;;4999856;28;20100;-81
2023/01/09 00:08:39;;;;;;;6.15;2.47;;;6.70;99.90;;;;;;5016808;28;20397;-84
2023/01/09 00:11:06;;;;;;;5.40;2.42;;;6.70;99.90;;;;;;5016523;28;20053;-79
2023/01/09 00:13:31;;;;;;;3.90;2.30;;;6.60;99.90;;;;;;5033646;28;20046;-86
2023/01/09 00:15:58;;;;;;;5.68;2.53;;;6.70;99.90;;;;;;5016282;28;20145;-86
2023/01/09 00:18:24;;;;;;;4.10;2.63;;;7.00;99.90;;;;;;5034555;28;20045;-83
2023/01/09 00:20:50;;;;;;;6.43;2.60;;;6.70;99.90;;;;;;5003731;28;20049;-82
2023/01/09 00:23:15;;;;;;;3.42;2.30;;;6.70;99.90;;;;;;5020049;28;20072;-82
2023/01/09 00:25:41;;;;;;;5.10;2.60;;;6.70;99.90;;;;;;5037739;28;20067;-82
2023/01/09 00:28:07;;;;;;;3.55;2.40;;;6.70;99.90;;;;;;5037433;28;20363;-81
2023/01/09 00:30:32;;;;;;;3.72;2.53;;;6.70;99.90;;;;;;5037575;28;20049;-83
2023/01/09 00:32:58;;;;;;;5.40;2.72;;;6.70;99.90;;;;;;5037424;28;20544;-85
2023/01/09 00:35:26;;;;;;;6.40;3.05;;;6.70;99.90;;;;;;5037211;28;20046;-86
2023/01/09 00:37:52;;;;;;;6.63;3.40;;;7.10;99.90;;;;;;5003766;28;20037;-84
2023/01/09 00:40:18;;;;;;;9.55;3.00;;;6.70;99.90;;;;;;5003493;28;20095;-84
2023/01/09 00:42:47;;;;;;;4.72;2.97;;;6.70;99.90;;;;;;5037271;28;20107;-83
2023/01/09 00:45:20;;;;;;;4.30;3.00;;;6.70;99.90;;;;;;5019800;28;20543;-83
2023/01/09 00:47:48;;;;;;;5.78;3.10;;;6.70;99.90;;;;;;5019675;28;20041;-85
2023/01/09 00:50:26;;;;;;;7.07;3.08;;;6.70;99.90;;;;;;5019458;28;20061;-82
2023/01/09 00:52:55;;;;;;;7.85;3.20;;;6.70;99.90;;;;;;5037138;28;20057;-86
2023/01/09 00:55:21;;;;;;;6.78;3.83;;;7.00;99.90;;;;;;5019468;28;20046;-80
2023/01/09 00:57:47;;;;;;;5.53;3.22;;;6.80;99.90;;;;;;5019271;28;20481;-84
2023/01/09 01:00:13;;;;;;;4.93;3.13;;;6.80;99.90;;;;;;5020286;28;20038;-85
2023/01/09 01:02:39;;;;;;;6.88;3.75;;;6.70;99.90;;;;;;5003228;28;20300;-84
2023/01/09 01:07:49;;;;;;;7.28;3.15;;;6.80;99.90;;;;;;5036510;28;20045;-85
2023/01/09 01:10:19;;;;;;;3.03;2.42;;;6.80;99.90;;;;;;5021203;28;20080;-83
2023/01/09 01:12:46;;;;;;;2.45;1.90;;;6.70;99.90;;;;;;5021590;28;20034;-85
2023/01/09 01:15:12;;;;;;;2.85;1.92;;;6.70;99.90;;;;;;5037281;28;20045;-87
2023/01/09 01:17:39;;;;;;;5.13;2.55;;;6.70;99.90;;;;;;5019005;28;20081;-85
2023/01/09 01:20:08;;;;;;;3.00;2.25;;;6.70;99.90;;;;;;5019122;28;20045;-85
2023/01/09 01:22:33;;;;;;;5.00;2.78;;;6.70;99.90;;;;;;5018816;28;20052;-84
2023/01/09 01:24:59;;;;;;;4.93;3.20;;;6.70;99.90;;;;;;5019059;28;20045;-83
2023/01/09 01:27:26;;;;;;;6.10;3.65;;;6.80;99.90;;;;;;5019303;28;20466;-86
2023/01/09 01:29:51;;;;;;;7.25;3.78;;;6.70;99.90;;;;;;4985022;28;20038;-82
2023/01/09 01:32:17;;;;;;;8.23;4.00;;;7.40;99.90;;;;;;5018768;28;20041;-83
2023/01/09 01:34:43;;;;;;;7.57;3.95;;;6.80;99.90;;;;;;5036258;28;20540;-83
2023/01/09 01:37:08;;;;;;;5.00;3.47;;;6.80;99.90;;;;;;5018514;28;20413;-86
2023/01/09 01:39:34;;;;;;;5.93;3.80;;;6.80;99.90;;;;;;5036060;28;20152;-82
2023/01/09 01:42:01;;;;;;;6.28;4.07;;;6.90;99.90;;;;;;5018294;28;20466;-84
2023/01/09 01:45:01;;;;;;;6.65;3.05;;;6.90;99.90;;;;;;5018551;28;20553;-85
2023/01/09 01:47:44;;;;;;;6.28;2.70;;;6.70;99.90;;;;;;5036037;28;20158;-84
2023/01/09 01:50:16;;;;;;;5.28;2.80;;;6.70;99.90;;;;;;5018335;28;20181;-82
2023/01/09 01:52:45;;;;;;;5.65;3.00;;;6.70;99.90;;;;;;5018594;28;20046;-84
2023/01/09 01:55:11;;;;;;;6.40;3.10;;;6.70;99.90;;;;;;5035894;28;20047;-86
2023/01/09 01:57:39;;;;;;;5.00;2.63;;;7.50;99.90;;;;;;5018495;28;20041;-85
2023/01/09 02:00:06;;;;;;;4.35;2.70;;;6.70;99.90;;;;;;5018369;28;20042;-83
2023/01/09 02:02:32;;;;;;;3.45;2.63;;;6.70;99.90;;;;;;5002002;28;20132;-83
2023/01/09 02:05:00;;;;;;;3.28;2.47;;;6.60;99.90;;;;;;5018431;28;20088;-83
2023/01/09 02:07:26;;;;;;;4.13;2.20;;;6.60;99.90;;;;;;5018041;28;20048;-85
2023/01/09 02:09:53;;;;;;;4.43;2.30;;;6.60;99.90;;;;;;5017933;28;20046;-84
2023/01/09 02:12:24;;;;;;;4.88;2.20;;;6.80;99.90;;;;;;5020781;28;20043;-83
2023/01/09 02:14:59;;;;;;;5.30;2.30;;;6.50;99.90;;;;;;5038445;28;20092;-85
2023/01/09 02:17:46;;;;;;;4.60;2.13;;;6.50;99.90;;;;;;5017767;28;20037;-84
2023/01/09 02:20:38;;;;;;;7.17;2.73;;;6.40;99.90;;;;;;5018285;28;20132;-84
2023/01/09 02:23:22;;;;;;;6.88;2.13;;;6.40;99.90;;;;;;5001723;28;20500;-86
2023/01/09 02:26:06;;;;;;;3.58;2.00;;;6.40;99.90;;;;;;5035203;28;20042;-84
2023/01/09 02:29:02;;;;;;;2.85;2.15;;;6.30;99.90;;;;;;5018235;28;20397;-82
2023/01/09 02:31:48;;;;;;;4.63;2.10;;;6.30;99.90;;;;;;5035424;28;20043;-83
2023/01/09 02:34:43;;;;;;;2.65;1.70;;;6.30;99.90;;;;;;5017826;28;20050;-86
2023/01/09 02:37:25;;;;;;;2.83;1.60;;;6.30;99.90;;;;;;5035358;28;20436;-84
2023/01/09 02:40:09;;;;;;;6.55;2.00;;;6.20;99.90;;;;;;5034874;28;20038;-82
2023/01/09 02:42:37;;;;;;;5.78;1.92;;;6.20;99.90;;;;;;5034674;28;20045;-85
2023/01/09 02:45:03;;;;;;;3.25;1.60;;;6.20;99.90;;;;;;5035321;28;20425;-85
2023/01/09 02:47:28;;;;;;;3.40;1.70;;;6.20;99.90;;;;;;5017434;28;20485;-86
2023/01/09 02:49:58;;;;;;;6.75;1.85;;;6.80;99.90;;;;;;5016945;28;20136;-82
2023/01/09 02:52:58;;;;;;;3.53;1.65;;;6.20;99.90;;;;;;4985262;28;20393;-82
2023/01/09 02:55:48;;;;;;;4.35;1.92;;;6.20;99.90;;;;;;5034838;28;20052;-83
2023/01/09 02:58:33;;;;;;;4.30;1.80;;;6.10;99.90;;;;;;5034784;28;20041;-84
2023/01/09 03:01:23;;;;;;;5.07;1.90;;;6.10;99.90;;;;;;5017331;28;20049;-84
2023/01/09 03:04:20;;;;;;;3.47;2.38;;;6.00;99.90;;;;;;5001477;28;20196;-84
2023/01/09 03:06:57;;;;;;;3.10;2.00;;;5.90;99.90;;;;;;5034637;28;20053;-85
2023/01/09 03:09:26;;;;;;;4.68;2.00;;;5.90;99.90;;;;;;5016945;28;20083;-86
2023/01/09 03:12:03;;;;;;;3.40;2.08;;;5.90;99.90;;;;;;5034447;28;20057;-84
2023/01/09 03:14:31;;;;;;;2.70;1.90;;;5.80;99.90;;;;;;5019816;28;20049;-84
2023/01/09 03:17:01;;;;;;;5.05;2.25;;;5.80;99.90;;;;;;5036510;28;20061;-83
2023/01/09 03:19:30;;;;;;;4.63;1.95;;;6.70;99.90;;;;;;5034381;28;20048;-86
2023/01/09 03:21:57;;;;;;;5.95;2.38;;;5.70;99.90;;;;;;5034490;28;20056;-81
2023/01/09 03:24:23;;;;;;;5.07;2.13;;;5.60;99.90;;;;;;5017418;28;20046;-83
2023/01/09 03:26:49;;;;;;;5.32;2.42;;;5.60;99.90;;;;;;5017147;28;20132;-83
2023/01/09 03:29:14;;;;;;;4.83;2.10;;;5.60;99.90;;;;;;5034645;28;20398;-84
2023/01/09 03:31:40;;;;;;;4.57;2.70;;;5.50;99.90;;;;;;5034351;28;20051;-84
2023/01/09 03:34:05;;;;;;;4.97;2.90;;;5.50;99.90;;;;;;5000623;28;20568;-84
2023/01/09 03:36:31;;;;;;;8.13;2.80;;;5.80;99.90;;;;;;5034524;28;20064;-84
2023/01/09 03:38:57;;;;;;;6.88;2.85;;;;;;;;;;5016147;28;20401;-84
2023/01/09 03:41:23;;;;;;;7.47;2.33;;;5.30;99.90;;;;;;5016505;28;20041;-86
2023/01/09 03:43:48;;;;;;;3.97;2.70;;;5.20;99.90;;;;;;5016721;28;20489;-83
2023/01/09 03:46:15;;;;;;;5.57;2.80;;;5.20;99.90;;;;;;5034191;28;20486;-84
2023/01/09 03:48:41;;;;;;;7.53;2.83;;;5.10;99.90;;;;;;5033859;28;20041;-85
2023/01/09 03:51:06;;;;;;;5.40;2.92;;;5.10;99.90;;;;;;5016344;28;20048;-83
2023/01/09 03:53:32;;;;;;;5.20;2.67;;;5.00;99.90;;;;;;5015412;28;20470;-83
2023/01/09 03:55:57;;;;;;;3.88;2.30;;;4.90;99.90;;;;;;5016312;28;20140;-85
2023/01/09 03:58:25;;;;;;;6.50;3.25;;;4.90;99.90;;;;;;5016462;28;20049;-86
2023/01/09 04:00:51;;;;;;;;;;;4.90;99.90;;;;;;5034035;28;20132;-83
2023/01/09 04:03:20;;;;;;;7.35;3.20;;;4.80;99.90;;;;;;5033738;28;19921;-83
2023/01/09 04:05:48;;;;;;;6.85;3.47;;;4.80;99.90;;;;;;5016069;28;20501;-85
2023/01/09 04:08:14;;;;;;;6.13;3.33;;;4.80;99.90;;;;;;5016241;28;20485;-82
2023/01/09 04:10:39;;;;;;;7.07;3.63;;;4.70;99.90;;;;;;5016430;28;20053;-84
2023/01/09 04:13:05;;;;;;;7.60;3.92;;;4.70;99.90;;;;;;5034057;28;20524;-86
2023/01/09 04:15:30;;;;;;;7.50;3.92;;;4.70;99.90;;;;;;5034951;28;20048;-83
2023/01/09 04:17:56;;;;;;;7.35;4.20;;;4.70;99.90;;;;;;5035130;28;20398;-85
2023/01/09 04:20:22;;;;;;;7.75;4.30;;;4.80;99.90;;;;;;5000010;28;20067;-85
2023/01/09 04:22:47;;;;;;;9.68;4.18;;;4.80;99.90;;;;;;5015850;28;20037;-85
2023/01/09 04:25:13;;;;;;;8.98;4.63;;;4.80;99.90;;;;;;5033531;28;20128;-84
2023/01/09 04:27:38;;;;;;;7.15;4.90;;;4.80;99.90;;;;;;5015905;28;20042;-82
2023/01/09 04:30:05;;;;;;;9.82;5.00;;;4.80;99.90;;;;;;5015880;28;20046;-87
2023/01/09 04:32:30;;;;;;;10.32;5.50;;;4.70;99.90;;;;;;5033390;28;20067;-84
2023/01/09 04:34:56;;;;;;;11.25;6.10;;;4.70;99.90;;;;;;5016107;28;20045;-82
2023/01/09 04:37:22;;;;;;;13.13;5.93;;;4.70;99.90;;;;;;5033150;28;20505;-83
2023/01/09 04:39:50;;;;;;;14.02;6.38;;;4.60;99.90;;;;;;5033501;28;20128;-85
2023/01/09 04:42:15;;;;;;;14.90;7.40;;;4.60;99.90;;;;;;5033244;28;20046;-86
2023/01/09 04:44:41;;;;;;;11.38;6.80;;;4.60;99.90;;;;;;5033314;28;20046;-85
2023/01/09 04:47:07;;;;;;;11.70;6.80;;;4.60;99.90;;;;;;5016091;28;20504;-83
2023/01/09 04:49:32;;;;;;;16.13;7.88;;;4.50;99.90;;;;;;5033639;28;20053;-86
2023/01/09 04:51:58;;;;;;;15.93;8.07;;;4.50;99.90;;;;;;5015805;28;20045;-84
2023/01/09 04:54:24;;;;;;;15.77;7.93;;;4.50;99.90;;;;;;5015785;28;20045;-82
2023/01/09 04:56:49;;;;;;;15.48;8.45;;;4.50;99.90;;;;;;4982984;28;20042;-83
2023/01/09 04:59:15;;;;;;;16.83;7.90;;;4.70;99.90;;;;;;5033180;28;20048;-83
2023/01/09 05:01:40;;;;;;;15.02;8.38;;;4.50;99.90;;;;;;5015925;28;20386;-82
2023/01/09 05:04:07;;;;;;;13.55;8.15;;;4.50;99.90;;;;;;5016362;28;20124;-85
2023/01/09 05:06:33;;;;;;;12.00;7.55;;;5.10;99.90;;;;;;5019307;28;20072;-84
2023/01/09 05:08:59;;;;;;;12.52;7.88;;;4.50;99.90;;;;;;5018699;28;20049;-85
2023/01/09 05:11:24;;;;;;;14.45;7.55;;;4.60;99.90;;;;;;5036711;28;20041;-85
2023/01/09 05:13:51;;;;;;;16.25;7.63;;;4.60;99.90;;;;;;5019110;28;20556;-83
2023/01/09 05:16:17;;;;;;;15.10;7.40;;;4.60;99.90;;;;;;5036885;28;20046;-86
2023/01/09 05:18:42;;;;;;;12.77;7.30;;;4.60;99.90;;;;;;5038129;28;20180;-84
2023/01/09 05:21:08;;;;;;;13.88;6.88;;;4.60;99.90;;;;;;5036577;28;20429;-85
2023/01/09 05:23:34;;;;;;;10.55;6.40;;;4.60;99.90;;;;;;5018527;28;20046;-84
2023/01/09 05:25:59;;;;;;;13.63;6.82;;;4.60;99.90;;;;;;5036615;28;20081;-85
2023/01/09 05:28:25;;;;;;;11.52;7.00;;;4.60;99.90;;;;;;5036378;28;20402;-85
2023/01/09 05:30:51;;;;;;;13.15;7.45;;;4.60;99.90;;;;;;5018782;28;20041;-83
2023/01/09 05:33:16;;;;;;;13.90;7.18;;;4.50;99.90;;;;;;5018802;28;20041;-83
2023/01/09 05:35:42;;;;;;;13.65;7.00;;;4.50;99.90;;;;;;5036168;28;20137;-83
2023/01/09 05:38:07;;;;;;;12.45;6.72;;;4.50;99.90;;;;;;5018813;28;20053;-85
2023/01/09 05:40:33;;;;;;;11.70;7.10;;;4.50;99.90;;;;;;5036360;28;20037;-85
2023/01/09 05:42:59;;;;;;;11.98;6.63;;;4.50;99.90;;;;;;5018929;28;20099;-84
2023/01/09 05:45:25;;;;;;;11.80;6.47;;;4.50;99.90;;;;;;5036176;28;20049;-84
2023/01/09 05:47:52;;;;;;;13.57;6.57;;;4.50;99.90;;;;;;5018853;28;20449;-87
2023/01/09 05:50:17;;;;;;;15.00;6.40;;;4.50;99.90;;;;;;5002277;28;20045;-85
2023/01/09 05:52:43;;;;;;;13.80;6.72;;;4.50;99.90;;;;;;5018307;28;20489;-83
2023/01/09 05:55:11;;;;;;;16.55;6.88;;;4.40;99.90;;;;;;5036015;28;20088;-86
2023/01/09 05:57:37;;;;;;;13.63;6.40;;;4.50;99.90;;;;;;5018248;28;20049;-84
2023/01/09 06:00:03;;;;;;;17.38;6.25;;;4.50;99.90;;;;;;5018674;28;20176;-82
2023/01/09 06:02:29;;;;;;;11.35;6.63;;;4.50;99.90;;;;;;5018405;28;20046;-85
2023/01/09 06:04:55;;;;;;;13.63;7.05;;;4.50;99.90;;;;;;5001823;28;20041;-82
2023/01/09 06:07:20;;;;;;;10.95;6.75;;;4.50;99.90;;;;;;5001867;28;20180;-85
2023/01/09 06:09:46;;;;;;;9.60;5.85;;;4.50;99.90;;;;;;5018084;28;20045;-82
2023/01/09 06:12:11;;;;;;;13.55;6.38;;;4.50;99.90;;;;;;5018074;28;20042;-86
2023/01/09 06:14:37;;;;;;;16.08;5.90;;;4.50;99.90;;;;;;5001789;28;20533;-84
2023/01/09 06:17:02;;;;;;;16.23;5.53;;;4.60;99.90;;;;;;5017517;28;20045;-83
2023/01/09 06:19:28;;;;;;;15.95;5.53;;;4.60;99.90;;;;;;5002973;28;20103;-82
2023/01/09 06:21:54;;;;;;;11.70;5.82;;;4.70;99.90;;;;;;5018122;28;20060;-85
2023/01/09 06:24:19;;;;;;;12.40;5.68;;;4.70;99.90;;;;;;5002432;28;20108;-85
2023/01/09 06:26:45;;;;;;;11.13;5.65;;;4.70;99.90;;;;;;5017766;28;20501;-84
2023/01/09 06:29:10;;;;;;;9.90;4.97;;;5.10;99.90;;;;;;5017935;28;20041;-84
2023/01/09 06:31:36;;;;;;;12.18;4.93;;;4.80;99.90;;;;;;5001618;28;20049;-85
2023/01/09 06:34:02;;;;;;;11.63;5.15;;;4.80;99.90;;;;;;5035266;28;20045;-85
2023/01/09 06:36:27;;;;;;;11.30;5.47;;;4.80;99.90;;;;;;5035118;28;20060;-84
2023/01/09 06:38:53;;;;;;;10.20;5.03;;;4.80;99.90;;;;;;5017678;28;20065;-85
2023/01/09 06:41:18;;;;;;;9.30;4.32;;;4.70;99.90;;;;;;5035108;28;20049;-86
2023/01/09 06:43:44;;;;;;;7.88;4.22;;;4.70;99.90;;;;;;5001345;28;20046;-84
2023/01/09 06:46:10;;;;;;;9.23;4.80;;;4.70;99.90;;;;;;5001404;28;20045;-82
2023/01/09 06:48:35;;;;;;;8.73;4.53;;;4.70;99.90;;;;;;5034949;28;20052;-80
2023/01/09 06:51:01;;;;;;;9.00;4.45;;;4.70;99.90;;;;;;5034929;28;20135;-83
2023/01/09 06:53:26;;;;;;;14.23;4.53;;;4.70;99.90;;;;;;5017540;28;20079;-82
2023/01/09 06:55:52;;;;;;;7.38;4.50;;;4.60;99.90;;;;;;5001260;28;20045;-80
2023/01/09 06:58:18;;;;;;;8.23;4.60;;;4.60;99.90;;;;;;5035324;28;20041;-82
2023/01/09 07:00:44;;;;;;;8.18;4.43;;;4.50;99.90;;;;;;5035161;28;20129;-84
2023/01/09 07:03:10;;;;;;;7.57;3.97;;;4.40;99.90;;;;;;5001081;28;20053;-83
2023/01/09 07:05:41;;;;;;;5.23;3.70;;;4.40;99.90;;;;;;5017246;28;20497;-83
2023/01/09 07:08:07;;;;;;;6.25;3.95;;;4.40;99.90;;;;;;5000860;28;20048;-82
2023/01/09 07:10:33;;;;;;;10.30;4.07;;;4.30;99.90;;;;;;5016925;28;20049;-82
2023/01/09 07:12:59;;;;;;;8.90;4.30;;;4.30;99.90;;;;;;5016845;28;20038;-83
2023/01/09 07:15:25;;;;;;;10.27;4.07;;;4.30;99.90;;;;;;5017127;28;20052;-83
2023/01/09 07:17:51;;;;;;;9.18;4.28;;;4.20;99.90;;;;;;5017398;28;20045;-83
2023/01/09 07:20:17;;;;;;;6.35;4.20;;;4.30;99.90;;;;;;5017239;28;20049;-82
2023/01/09 07:22:43;;;;;;;11.55;4.18;;;4.30;99.90;;;;;;5016956;28;20068;-80
2023/01/09 07:25:09;;;;;;;8.03;4.00;;;4.30;99.90;;;;;;5034190;28;20087;-82
2023/01/09 07:27:34;;;;;;;10.02;4.22;;;4.30;99.90;;;;;;5034051;28;20284;-84
2023/01/09 07:30:00;;;;;;;10.55;4.25;;;4.30;99.90;;;;;;5016517;28;20037;-82
2023/01/09 07:32:26;;;;;;;10.18;4.00;;;4.30;99.90;;;;;;5016692;28;20085;-81
2023/01/09 07:34:52;;;;;;;10.55;4.03;;;4.50;99.90;;;;;;5034206;28;20402;-80
2023/01/09 07:37:18;;;;;;;9.52;4.57;;;4.40;99.90;;;;;;5034009;28;20502;-84
2023/01/09 07:39:43;;;;;;;9.77;3.90;;;4.50;99.90;;;;;;5000224;28;20049;-79
2023/01/09 07:42:10;;;;;;;11.70;4.13;;;4.50;99.90;;;;;;5033991;28;20387;-82
2023/01/09 07:44:36;;;;;;;12.20;4.38;;;4.60;99.90;;;;;;5033666;28;20056;-86
2023/01/09 07:47:01;;;;;;;7.22;4.10;;;4.60;99.90;;;;;;5033894;28;20041;-84
2023/01/09 07:49:27;;;;;;;10.00;4.03;;;4.60;99.90;;;;;;5016201;28;20108;-84
2023/01/09 07:51:53;;;;;;;9.75;4.03;;;4.70;99.90;;;;;;4999967;28;20045;-84
2023/01/09 07:54:19;;;;;;;8.00;3.93;;;4.70;99.90;;;;;;5000152;28;20049;-84
2023/01/09 07:56:44;;;;;;;10.90;4.05;;;4.70;99.90;;;;;;5000244;28;20292;-85
2023/01/09 07:59:10;;;;;;;8.68;3.80;;;4.80;99.90;;;;;;5000718;28;20042;-85
2023/01/09 08:01:36;;;;;;;7.38;3.58;;;4.80;99.90;;;;;;5000157;28;20042;-85
2023/01/09 08:04:02;;;;;;;10.32;3.80;;;4.80;99.90;;;;;;5016748;28;20037;-85
2023/01/09 08:06:27;;;;;;;8.93;4.07;;;4.80;99.90;;;;;;5033822;28;20092;-84
2023/01/09 08:08:53;;;;;;;7.43;3.88;;;4.90;99.90;;;;;;5033743;28;20128;-86
2023/01/09 08:11:19;;;;;;;5.95;3.20;;;4.90;99.90;;;;;;5016378;28;20119;-84
2023/01/09 08:13:44;;;;;;;7.70;3.75;;;4.90;99.90;;;;;;5033977;28;20042;-84
2023/01/09 08:16:10;;;;;;;7.95;3.65;;;5.00;99.90;;;;;;5015947;28;20046;-86
2023/01/09 08:18:36;;;;;;;10.55;4.00;;;5.00;99.90;;;;;;4999948;28;20056;-85
2023/01/09 08:21:01;;;;;;;8.00;3.80;;;5.00;99.90;;;;;;5015767;28;20387;-85
2023/01/09 08:23:27;;;;;;;9.90;3.95;;;5.00;99.90;;;;;;5016846;28;20045;-86
2023/01/09 08:25:52;;;;;;;12.85;3.90;;;5.20;99.90;;;;;;5016377;28;20042;-85
2023/01/09 08:28:18;;;;;;;9.05;3.67;;;5.10;99.90;;;;;;5015829;28;20037;-86
2023/01/09 08:30:45;;;;;;;7.35;3.80;;;5.20;99.90;;;;;;5033246;28;20053;-85
2023/01/09 08:33:10;;;;;;;9.02;3.55;;;5.20;99.90;;;;;;5016111;28;20056;-85
2023/01/09 08:35:37;;;;;;;6.13;3.78;;;5.30;99.90;;;;;;5015635;28;20057;-84
2023/01/09 08:38:09;;;;;;;8.75;3.60;;;5.30;99.90;;;;;;5016230;28;20437;-85
2023/01/09 08:40:38;;;;;;;10.15;4.43;;;5.30;99.90;;;;;;5019008;28;20045;-85
2023/01/09 08:48:32;;;;;;;9.38;3.85;;;5.40;99.90;;;;;;5020339;28;20053;-85
2023/01/09 08:50:58;;;;;;;8.32;3.63;;;5.40;99.90;;;;;;5019414;28;20485;-85
2023/01/09 08:53:23;;;;;;;13.45;4.15;;;5.40;99.90;;;;;;5003338;28;20053;-85
2023/01/09 08:55:49;;;;;;;11.18;3.97;;;5.40;99.90;;;;;;5019778;28;20482;-86
2023/01/09 08:58:15;;;;;;;6.78;3.47;;;5.50;99.90;;;;;;5019788;28;20057;-86
2023/01/09 09:00:40;;;;;;;9.45;3.65;;;5.50;99.90;;;;;;5037096;28;20040;-85
2023/01/09 09:03:06;;;;;;;7.47;3.55;;;5.60;99.90;;;;;;5019308;28;20432;-84
2023/01/09 09:05:31;;;;;;;11.93;3.80;;;5.60;99.90;;;;;;5036862;28;20124;-85
2023/01/09 09:07:58;;;;;;;5.38;3.17;;;5.60;99.90;;;;;;5003063;28;20059;-85
2023/01/09 09:10:29;;;;;;;13.52;3.65;;;5.60;99.90;;;;;;5003161;28;20140;-84
2023/01/09 09:12:56;;;;;;;6.35;3.42;;;5.60;99.90;;;;;;5019284;28;20052;-85
2023/01/09 09:15:23;;;;;;;9.43;3.45;;;5.70;99.90;;;;;;5019210;28;20046;-84
2023/01/09 09:17:52;;;;;;;15.23;3.95;;;5.70;99.90;;;;;;5019977;28;20057;-85
2023/01/09 09:20:18;;;;;;;9.15;3.80;;;5.70;99.90;;;;;;5036445;28;20050;-84
2023/01/09 09:22:45;;;;;;;8.88;3.95;;;5.90;99.90;;;;;;5037029;28;20045;-86
2023/01/09 09:25:11;;;;;;;9.50;4.32;;;5.80;99.90;;;;;;5026320;28;20053;-86
2023/01/09 09:27:36;;;;;;;10.50;3.72;;;5.80;99.90;;;;;;5002730;28;20052;-85
2023/01/09 09:30:03;;;;;;;9.02;4.20;;;5.90;99.90;;;;;;5036426;28;20052;-84
2023/01/09 09:32:30;;;;;;;8.20;3.70;;;5.90;99.90;;;;;;5002346;28;20132;-86
2023/01/09 09:34:55;;;;;;;;;;;6.00;99.90;;;;;;5019089;28;20050;-86
2023/01/09 09:37:21;;;;;;;10.13;3.88;;;6.00;99.90;;;;;;5001565;28;20012;-88
2023/01/09 09:39:46;;;;;;;10.40;3.70;;;6.00;99.90;;;;;;5019042;28;20081;-84
2023/01/09 09:45:21;;;;;;;8.32;3.33;;;6.10;99.90;;;;;;5019104;28;20046;-85
2023/01/09 09:47:50;;;;;;;12.73;4.03;;;6.20;99.90;;;;;;5019144;28;20046;-84
2023/01/09 09:50:45;;;;;;;7.80;3.97;;;6.20;99.90;;;;;;5019765;28;20046;-90
2023/01/09 09:53:34;;;;;;;6.85;3.55;;;6.20;99.90;;;;;;5018625;28;20042;-87
2023/01/09 09:56:01;;;;;;;7.00;3.17;;;6.20;99.90;;;;;;5020561;28;20045;-88
2023/01/09 09:58:44;;;;;;;7.05;3.55;;;6.30;99.90;;;;;;5002486;28;20057;-89
2023/01/09 10:01:17;;;;;;;5.25;2.70;;;6.30;99.90;;;;;;5018976;28;20176;-86
2023/01/09 10:03:52;;;;;;;10.82;3.15;;;6.50;99.90;;;;;;5036087;28;20049;-86
2023/01/09 10:06:29;;;;;;;5.85;2.53;;;6.30;99.90;;;;;;5002870;28;20041;-89
2023/01/09 10:09:01;;;;;;;4.70;2.67;;;6.40;99.90;;;;;;5002290;28;20080;-88
2023/01/09 10:11:41;;;;;;;6.55;2.70;;;6.40;99.90;;;;;;5002565;28;20053;-86
2023/01/09 10:14:09;;;;;;;6.05;2.78;;;6.40;99.90;;;;;;5002093;28;20183;-84
2023/01/09 10:17:02;;;;;;;5.75;2.42;;;6.40;99.90;;;;;;5002338;28;20079;-86
2023/01/09 10:19:57;;;;;;;5.07;3.05;;;6.40;99.90;;;;;;5018307;28;20053;-85
2023/01/09 10:22:53;;;;;;;8.52;2.88;;;6.40;99.90;;;;;;5001807;28;20053;-84
2023/01/09 10:25:39;;;;;;;5.57;2.90;;;6.40;99.90;;;;;;5018616;28;20042;-83
2023/01/09 10:28:23;;;;;;;7.07;2.50;;;6.40;99.90;;;;;;5021216;28;20379;-82
2023/01/09 10:30:54;;;;;;;9.90;2.90;;;6.40;99.90;;;;;;5035219;28;20053;-83
2023/01/09 10:33:47;;;;;;;8.50;2.90;;;6.40;99.90;;;;;;5002128;28;20049;-83
2023/01/09 10:36:31;;;;;;;7.28;3.15;;;6.40;99.90;;;;;;5017685;28;20059;-83
2023/01/09 10:39:03;;;;;;;5.95;2.95;;;6.40;99.90;;;;;;5035157;28;20049;-85
2023/01/09 10:41:47;;;;;;;5.20;3.00;;;6.40;99.90;;;;;;5017953;28;20048;-83
2023/01/09 10:44:24;;;;;;;4.65;2.95;;;6.40;99.90;;;;;;5035062;28;20046;-83
2023/01/09 10:46:54;;;;;;;5.20;3.30;;;6.40;99.90;;;;;;5035098;28;20140;-83
2023/01/09 10:49:22;;;;;;;7.47;2.90;;;6.90;99.90;;;;;;5034671;28;20048;-86
2023/01/09 10:52:10;;;;;;;6.30;2.90;;;6.50;99.90;;;;;;5000770;28;20497;-86
2023/01/09 10:54:40;;;;;;;4.03;2.63;;;6.50;99.90;;;;;;5035728;28;20053;-87
2023/01/09 10:57:13;;;;;;;9.30;3.15;;;6.50;99.90;;;;;;5017367;28;20060;-83
2023/01/09 10:59:42;;;;;;;10.63;3.90;;;6.50;99.90;;;;;;5034975;28;20045;-90
2023/01/09 11:02:34;;;;;;;5.75;2.85;;;6.50;99.90;;;;;;5000802;28;20052;-90
2023/01/09 11:05:00;;;;;;;5.93;3.20;;;6.50;99.90;;;;;;4985185;28;20045;-84
2023/01/09 11:07:35;;;;;;;9.18;3.45;;;6.50;99.90;;;;;;5016978;28;20045;-83
2023/01/09 11:10:02;;;;;;;8.35;4.20;;;6.50;99.90;;;;;;5034490;28;20079;-84
2023/01/09 11:12:32;;;;;;;7.85;3.83;;;6.50;99.90;;;;;;5034423;28;20136;-80
2023/01/09 11:15:18;;;;;;;8.57;3.90;;;6.50;99.90;;;;;;5034973;28;20461;-82
2023/01/09 11:17:46;;;;;;;7.25;3.70;;;6.50;99.90;;;;;;5034362;28;20486;-83
2023/01/09 11:20:22;;;;;;;;;;;6.50;99.90;;;;;;5034755;28;20121;-84
2023/01/09 11:22:49;;;;;;;7.85;3.80;;;6.50;99.90;;;;;;5034622;28;19920;-81
2023/01/09 11:25:17;;;;;;;10.00;4.85;;;6.50;99.90;;;;;;5010764;28;20067;-82
2023/01/09 11:27:43;;;;;;;6.55;3.88;;;6.60;99.90;;;;;;5036250;28;20049;-83
2023/01/09 11:30:08;;;;;;;5.75;3.90;;;6.60;99.90;;;;;;5004451;28;20044;-85
2023/01/09 11:32:35;;;;;;;7.32;4.30;;;6.60;99.90;;;;;;5000967;28;20097;-89
2023/01/09 11:35:05;;;;;;;6.40;4.43;;;6.60;99.90;;;;;;5000556;28;20046;-83
2023/01/09 11:37:31;;;;;;;8.43;4.00;;;6.60;99.90;;;;;;5016268;28;20049;-88
2023/01/09 11:39:59;;;;;;;6.07;4.35;;;6.60;99.90;;;;;;5034094;28;20064;-88
2023/01/09 11:45:19;;;;;;;5.85;4.53;;;6.60;99.90;;;;;;5016772;28;20049;-89
2023/01/09 11:47:45;;;;;;;6.72;4.78;;;6.60;99.90;;;;;;5016261;28;20037;-83
2023/01/09 11:50:23;;;;;;;9.23;5.03;;;7.20;99.90;;;;;;5016302;28;20504;-83
2023/01/09 11:53:17;;;;;;;7.65;4.72;;;6.60;99.90;;;;;;5033932;28;20327;-86
2023/01/09 11:55:44;;;;;;;6.80;4.47;;;6.60;99.90;;;;;;5016727;28;20047;-84
2023/01/09 11:58:16;;;;;;;6.72;4.75;;;6.60;99.90;;;;;;5016553;28;20042;-86
2023/01/09 12:01:05;;;;;;;8.98;4.97;;;6.60;99.90;;;;;;5000054;28;20045;-85
2023/01/09 12:03:36;;;;;;;8.20;5.60;;;6.60;99.90;;;;;;5000126;28;20524;-86
2023/01/09 12:06:11;;;;;;;8.70;4.97;;;7.30;99.90;;;;;;5016605;28;20068;-85
2023/01/09 12:09:01;;;;;;;7.32;4.93;;;6.60;99.90;;;;;;5000018;28;20049;-86
2023/01/09 12:11:58;;;;;;;7.80;5.32;;;6.60;99.90;;;;;;5033826;28;20045;-81
2023/01/09 12:14:40;;;;;;;9.82;5.82;;;6.60;99.90;;;;;;5016076;28;20132;-84
2023/01/09 12:17:32;;;;;;;8.60;6.20;;;6.60;99.90;;;;;;5016228;28;20049;-82
2023/01/09 12:20:17;;;;;;;9.18;5.63;;;6.60;99.90;;;;;;5034078;28;20056;-83
2023/01/09 12:22:51;;;;;;;8.95;5.55;;;6.60;99.90;;;;;;5016038;28;20045;-83
2023/01/09 12:25:36;;;;;;;8.82;6.32;;;6.60;99.90;;;;;;5000019;28;20112;-88
2023/01/09 12:28:24;;;;;;;11.02;6.32;;;6.60;99.90;;;;;;5001004;28;20060;-86
2023/01/09 12:31:24;;;;;;;13.85;6.22;;;6.70;99.90;;;;;;5013705;28;20049;-86
2023/01/09 12:34:10;;;;;;;12.15;8.02;;;6.70;99.90;;;;;;5016115;28;20425;-87
2023/01/09 12:36:51;;;;;;;19.20;11.18;;;6.70;99.90;;;;;;5034070;28;20076;-86
2023/01/09 12:39:31;;;;;;;14.20;7.82;;;6.80;99.90;;;;;;4999818;28;20502;-85
2023/01/09 12:41:56;;;;;;;12.32;7.82;;;6.80;99.90;;;;;;5033872;28;20037;-81
2023/01/09 12:44:37;;;;;;;12.52;7.32;;;6.80;99.90;;;;;;5000000;28;20056;-82
2023/01/09 12:47:27;;;;;;;11.65;7.15;;;6.80;99.90;;;;;;5016438;28;20501;-84
2023/01/09 12:50:24;;;;;;;11.43;7.57;;;6.90;99.90;;;;;;5034071;28;20574;-84
2023/01/09 12:53:18;;;;;;;12.77;7.90;;;6.90;99.90;;;;;;5016487;28;20084;-84
2023/01/09 12:55:52;;;;;;;13.05;8.38;;;6.80;99.90;;;;;;5016448;28;20460;-84
2023/01/09 12:58:30;;;;;;;13.77;7.88;;;6.90;99.90;;;;;;4999999;28;20056;-84
2023/01/09 13:00:58;;;;;;;13.85;7.88;;;6.90;99.90;;;;;;5015624;28;20061;-85
2023/01/09 13:03:38;;;;;;;13.88;7.85;;;6.90;99.90;;;;;;5033170;28;20069;-80
2023/01/09 13:06:07;;;;;;;12.52;8.75;;;6.90;99.90;;;;;;5032994;28;20470;-84
2023/01/09 13:08:48;;;;;;;13.07;7.75;;;6.90;99.90;;;;;;5015313;28;20052;-80
2023/01/09 13:11:21;;;;;;;12.32;8.63;;;6.90;99.90;;;;;;5015947;28;20061;-83
2023/01/09 13:13:57;;;;;;;11.93;8.02;;;6.90;99.90;;;;;;5015576;28;20568;-84
2023/01/09 13:16:33;;;;;;;14.98;7.70;;;6.90;99.90;;;;;;5015838;28;20136;-82
2023/01/09 13:19:06;;;;;;;15.23;8.55;;;6.90;99.90;;;;;;5015813;28;20486;-83
2023/01/09 13:21:32;;;;;;;16.63;8.65;;;7.10;99.90;;;;;;5015474;28;20056;-83
2023/01/09 13:24:04;;;;;;;15.07;8.48;;;7.00;99.90;;;;;;5032847;28;20057;-85
2023/01/09 13:26:39;;;;;;;16.60;8.07;;;7.00;99.90;;;;;;5017998;28;20049;-82